createdAt,value
2018-07-31T00:00:40.853Z,38.17
2018-07-31T00:03:08.489Z,37.56
2018-07-31T00:05:36.191Z,37.99
2018-07-31T00:08:04.064Z,37.92
2018-07-31T00:10:31.718Z,37.21
2018-07-31T00:12:59.456Z,37.23
2018-07-31T00:15:27.048Z,37.66
2018-07-31T00:17:54.721Z,36.94
2018-07-31T00:20:22.367Z,37.45
2018-07-31T00:22:50.343Z,36.97
2018-07-31T00:25:18.129Z,37.08
2018-07-31T00:27:45.758Z,37.45
2018-07-31T00:30:13.396Z,37.30
2018-07-31T00:32:41.113Z,36.80
2018-07-31T00:35:08.731Z,37.25
2018-07-31T00:37:36.479Z,37.54
2018-07-31T00:40:04.177Z,37.03
2018-07-31T00:42:31.902Z,37.05
2018-07-31T00:44:59.581Z,37.61
2018-07-31T00:47:27.267Z,37.17
2018-07-31T00:49:54.875Z,37.47
2018-07-31T00:52:22.530Z,37.16
2018-07-31T00:54:50.107Z,37.57
2018-07-31T00:57:17.936Z,37.44
2018-07-31T00:59:45.527Z,37.41
2018-07-31T01:02:13.199Z,37.05
2018-07-31T01:04:40.857Z,36.97
2018-07-31T01:07:08.557Z,37.03
2018-07-31T01:09:37.232Z,36.96
2018-07-31T01:12:05.072Z,37.26
2018-07-31T01:14:32.671Z,36.76
2018-07-31T01:17:00.444Z,37.21
2018-07-31T01:19:28.128Z,36.56
2018-07-31T01:21:55.760Z,37.00
2018-07-31T01:24:23.514Z,37.01
2018-07-31T01:26:51.124Z,37.22
2018-07-31T01:29:18.763Z,36.76
2018-07-31T01:31:46.345Z,36.90
2018-07-31T01:34:13.979Z,37.22
2018-07-31T01:36:41.644Z,37.03
2018-07-31T01:39:10.949Z,36.59
2018-07-31T01:41:38.604Z,36.75
2018-07-31T01:44:06.267Z,36.77
2018-07-31T01:46:33.859Z,37.23
2018-07-31T01:49:01.495Z,36.98
2018-07-31T01:51:29.161Z,37.06
2018-07-31T01:53:56.767Z,37.15
2018-07-31T01:56:24.449Z,37.67
2018-07-31T01:58:52.024Z,37.61
2018-07-31T02:01:19.609Z,37.50
2018-07-31T02:03:47.261Z,37.84
2018-07-31T02:06:14.967Z,37.88
2018-07-31T02:08:42.601Z,37.66
2018-07-31T02:11:10.212Z,37.52
2018-07-31T02:13:37.799Z,38.02
2018-07-31T02:16:05.478Z,37.64
2018-07-31T02:18:33.102Z,37.38
2018-07-31T02:21:00.745Z,37.92
2018-07-31T02:23:28.371Z,37.54
2018-07-31T02:25:55.983Z,37.41
2018-07-31T02:28:23.803Z,37.84
2018-07-31T02:30:51.267Z,37.94
2018-07-31T02:33:18.940Z,37.69
2018-07-31T02:35:47.295Z,37.94
2018-07-31T02:38:14.870Z,37.87
2018-07-31T02:40:42.603Z,37.99
2018-07-31T02:43:10.199Z,38.34
2018-07-31T02:45:37.811Z,37.92
2018-07-31T02:48:06.060Z,38.42
2018-07-31T02:50:33.628Z,38.63
2018-07-31T02:53:01.241Z,38.49
2018-07-31T02:55:28.955Z,38.65
2018-07-31T02:57:56.710Z,38.41
2018-07-31T03:00:24.317Z,38.13
2018-07-31T03:02:51.952Z,38.30
2018-07-31T03:05:19.544Z,38.60
2018-07-31T03:07:48.156Z,38.51
2018-07-31T03:10:15.843Z,38.33
2018-07-31T03:12:43.553Z,38.74
2018-07-31T03:15:11.526Z,38.18
2018-07-31T03:17:39.245Z,38.89
2018-07-31T03:20:07.692Z,38.56
2018-07-31T03:22:35.545Z,38.69
2018-07-31T03:25:03.572Z,38.55
2018-07-31T03:27:31.267Z,38.73
2018-07-31T03:29:58.903Z,38.25
2018-07-31T03:32:26.569Z,38.12
2018-07-31T03:34:54.267Z,38.13
2018-07-31T03:37:21.904Z,38.33
2018-07-31T03:39:49.575Z,38.21
2018-07-31T03:42:17.239Z,38.77
2018-07-31T03:44:44.848Z,38.87
2018-07-31T03:47:12.543Z,38.46
2018-07-31T03:49:40.120Z,38.52
2018-07-31T03:52:07.785Z,38.63
2018-07-31T03:54:35.472Z,38.74
2018-07-31T03:57:03.132Z,38.21
2018-07-31T03:59:30.818Z,38.56
2018-07-31T04:01:58.494Z,38.48
2018-07-31T04:04:26.079Z,38.60
2018-07-31T04:06:53.864Z,38.76
2018-07-31T04:09:22.573Z,38.61
2018-07-31T04:11:50.235Z,38.67
2018-07-31T04:14:17.898Z,38.58
2018-07-31T04:16:45.579Z,38.64
2018-07-31T04:19:13.209Z,38.40
2018-07-31T04:21:40.852Z,38.48
2018-07-31T04:24:08.523Z,38.38
2018-07-31T04:26:36.261Z,39.25
2018-07-31T04:29:03.869Z,38.77
2018-07-31T04:31:31.504Z,38.81
2018-07-31T04:33:59.182Z,39.35
2018-07-31T04:36:26.762Z,38.92
2018-07-31T04:38:54.431Z,39.05
2018-07-31T04:41:22.098Z,38.54
2018-07-31T04:43:49.699Z,38.80
2018-07-31T04:46:17.444Z,38.79
2018-07-31T04:48:45.184Z,38.42
2018-07-31T04:51:12.850Z,38.45
2018-07-31T04:53:40.483Z,38.25
2018-07-31T04:56:08.127Z,38.33
2018-07-31T04:58:35.768Z,38.53
2018-07-31T05:01:03.452Z,38.44
2018-07-31T05:03:31.165Z,38.21
2018-07-31T05:05:58.835Z,38.23
2018-07-31T05:08:26.568Z,38.53
2018-07-31T05:10:54.272Z,38.20
2018-07-31T05:13:21.971Z,38.19
2018-07-31T05:15:49.623Z,37.85
2018-07-31T05:18:17.364Z,37.64
2018-07-31T05:20:45.376Z,37.97
2018-07-31T05:23:13.079Z,37.52
2018-07-31T05:25:40.717Z,37.83
2018-07-31T05:28:08.464Z,37.09
2018-07-31T05:30:36.151Z,37.14
2018-07-31T05:33:04.393Z,36.87
2018-07-31T05:35:32.032Z,36.81
2018-07-31T05:37:59.728Z,36.39
2018-07-31T05:40:27.316Z,36.74
2018-07-31T05:42:54.982Z,36.65
2018-07-31T05:45:22.706Z,36.31
2018-07-31T05:47:50.365Z,36.07
2018-07-31T05:50:18.095Z,36.40
2018-07-31T05:52:46.164Z,35.67
2018-07-31T05:55:13.749Z,36.01
2018-07-31T05:57:41.393Z,35.46
2018-07-31T06:00:09.192Z,35.56
2018-07-31T06:02:36.992Z,35.58
2018-07-31T06:05:04.687Z,35.67
2018-07-31T06:07:32.372Z,35.67
2018-07-31T06:10:00.013Z,35.40
2018-07-31T06:12:27.788Z,35.28
2018-07-31T06:14:55.403Z,35.54
2018-07-31T06:17:23.181Z,34.79
2018-07-31T06:19:50.759Z,34.60
2018-07-31T06:22:18.479Z,34.31
2018-07-31T06:24:46.051Z,34.01
2018-07-31T06:27:13.652Z,34.63
2018-07-31T06:29:41.249Z,33.91
2018-07-31T06:32:08.887Z,34.38
2018-07-31T06:34:36.495Z,34.15
2018-07-31T06:37:04.279Z,33.90
2018-07-31T06:39:31.907Z,33.58
2018-07-31T06:41:59.519Z,33.43
2018-07-31T06:44:27.125Z,33.97
2018-07-31T06:46:54.761Z,33.06
2018-07-31T06:49:22.429Z,33.09
2018-07-31T06:51:50.036Z,33.41
2018-07-31T06:54:17.919Z,33.00
2018-07-31T06:56:45.524Z,32.84
2018-07-31T06:59:13.210Z,32.18
2018-07-31T07:01:40.808Z,31.70
2018-07-31T07:04:08.556Z,31.61
2018-07-31T07:06:36.214Z,31.46
2018-07-31T07:09:05.872Z,31.21
2018-07-31T07:11:33.466Z,30.93
2018-07-31T07:14:01.107Z,31.38
2018-07-31T07:16:28.732Z,31.27
2018-07-31T07:18:56.314Z,31.03
2018-07-31T07:21:23.915Z,30.88
2018-07-31T07:23:51.484Z,29.89
2018-07-31T07:26:19.068Z,29.69
2018-07-31T07:28:46.929Z,29.90
2018-07-31T07:31:14.581Z,30.23
2018-07-31T07:33:42.174Z,29.61
2018-07-31T07:36:09.784Z,29.98
2018-07-31T07:38:37.348Z,29.51
2018-07-31T07:41:05.056Z,29.59
2018-07-31T07:43:32.663Z,29.16
2018-07-31T07:46:00.259Z,28.26
2018-07-31T07:48:27.844Z,27.79
2018-07-31T07:50:55.592Z,28.38
2018-07-31T07:53:23.272Z,28.08
2018-07-31T07:55:50.868Z,28.16
2018-07-31T07:58:18.504Z,27.77
2018-07-31T08:00:46.108Z,27.23
2018-07-31T08:03:13.706Z,27.19
2018-07-31T08:05:41.430Z,28.11
2018-07-31T08:08:09.613Z,27.05
2018-07-31T08:10:38.556Z,26.77
2018-07-31T08:13:06.232Z,26.20
2018-07-31T08:15:33.923Z,26.33
2018-07-31T08:18:01.483Z,25.65
2018-07-31T08:20:29.124Z,25.62
2018-07-31T08:22:56.742Z,25.74
2018-07-31T08:25:24.721Z,25.23
2018-07-31T08:27:52.404Z,25.10
2018-07-31T08:30:20.020Z,24.42
2018-07-31T08:32:47.644Z,24.43
2018-07-31T08:35:15.444Z,23.96
2018-07-31T08:37:43.166Z,23.23
2018-07-31T08:40:10.844Z,22.70
2018-07-31T08:42:38.536Z,22.28
2018-07-31T08:45:07.683Z,21.87
2018-07-31T08:47:35.312Z,20.65
2018-07-31T08:50:03.012Z,20.17
2018-07-31T08:52:30.623Z,20.87
2018-07-31T08:54:58.207Z,20.04
2018-07-31T08:57:25.905Z,19.75
2018-07-31T08:59:53.498Z,19.84
2018-07-31T09:02:21.133Z,19.00
2018-07-31T09:04:48.854Z,19.52
2018-07-31T09:07:16.500Z,18.99
2018-07-31T09:09:44.139Z,18.95
2018-07-31T09:12:13.030Z,18.43
2018-07-31T09:14:40.615Z,18.69
2018-07-31T09:17:08.540Z,18.61
2018-07-31T09:19:36.172Z,17.88
2018-07-31T09:22:03.804Z,18.12
2018-07-31T09:24:31.433Z,17.79
2018-07-31T09:26:59.043Z,17.39
2018-07-31T09:29:27.004Z,17.05
2018-07-31T09:31:54.592Z,17.05
2018-07-31T09:34:22.223Z,16.95
2018-07-31T09:36:49.798Z,17.08
2018-07-31T09:39:17.385Z,16.07
2018-07-31T09:41:44.980Z,16.47
2018-07-31T09:44:12.611Z,16.41
2018-07-31T09:46:40.204Z,16.38
2018-07-31T09:49:07.856Z,16.59
2018-07-31T09:51:35.464Z,15.98
2018-07-31T09:54:03.174Z,16.30
2018-07-31T09:56:30.870Z,16.20
2018-07-31T09:58:58.535Z,15.49
2018-07-31T10:01:26.471Z,15.48
2018-07-31T10:03:54.116Z,14.66
2018-07-31T10:06:21.730Z,15.28
2018-07-31T10:08:49.348Z,15.19
2018-07-31T10:11:17.058Z,15.02
2018-07-31T10:13:44.945Z,14.98
2018-07-31T10:16:12.523Z,15.00
2018-07-31T10:18:40.716Z,14.52
2018-07-31T10:21:08.383Z,15.03
2018-07-31T10:23:35.960Z,14.88
2018-07-31T10:26:03.778Z,14.94
2018-07-31T10:28:31.448Z,15.31
2018-07-31T10:30:59.533Z,15.31
2018-07-31T10:33:27.132Z,14.98
2018-07-31T10:36:15.462Z,14.26
2018-07-31T10:38:43.570Z,14.32
2018-07-31T10:41:11.196Z,13.13
2018-07-31T10:43:38.834Z,13.80
2018-07-31T10:46:06.487Z,13.78
2018-07-31T10:48:34.149Z,13.34
2018-07-31T10:51:48.845Z,13.90
2018-07-31T10:54:17.939Z,13.35
2018-07-31T10:56:45.659Z,12.97
2018-07-31T10:59:13.368Z,13.40
2018-07-31T11:01:41.039Z,13.46
2018-07-31T11:04:08.720Z,12.84
2018-07-31T11:06:36.444Z,12.84
2018-07-31T11:09:07.385Z,12.69
2018-07-31T11:11:35.796Z,12.82
2018-07-31T11:14:04.032Z,14.11
2018-07-31T11:16:31.646Z,15.52
2018-07-31T11:18:59.318Z,15.70
2018-07-31T11:21:26.948Z,16.57
2018-07-31T11:23:54.575Z,17.41
2018-07-31T11:26:22.205Z,17.23
2018-07-31T11:28:50.069Z,17.21
2018-07-31T11:31:20.876Z,17.62
2018-07-31T11:33:49.069Z,18.27
2018-07-31T11:36:16.756Z,18.10
2018-07-31T11:38:44.396Z,19.10
2018-07-31T11:41:12.176Z,19.96
2018-07-31T11:43:39.848Z,20.72
2018-07-31T11:46:07.719Z,20.99
2018-07-31T11:48:35.525Z,21.43
2018-07-31T11:51:03.318Z,21.16
2018-07-31T11:53:30.959Z,21.10
2018-07-31T11:55:58.834Z,20.61
2018-07-31T11:58:26.597Z,21.07
2018-07-31T12:00:54.252Z,20.88
2018-07-31T12:03:21.942Z,20.92
2018-07-31T12:05:49.906Z,20.50
2018-07-31T12:08:17.640Z,20.75
2018-07-31T12:10:45.280Z,20.73
2018-07-31T12:13:13.642Z,20.49
2018-07-31T12:15:41.721Z,20.70
2018-07-31T12:18:09.453Z,20.37
2018-07-31T12:20:37.220Z,20.51
2018-07-31T12:23:04.835Z,20.13
2018-07-31T12:25:32.561Z,20.21
2018-07-31T12:28:00.179Z,19.86
2018-07-31T12:30:27.824Z,20.31
2018-07-31T12:32:55.515Z,20.74
2018-07-31T12:35:23.145Z,20.73
2018-07-31T12:37:50.963Z,20.84
2018-07-31T12:40:18.664Z,21.00
2018-07-31T12:42:46.423Z,21.16
2018-07-31T12:45:14.049Z,21.19
2018-07-31T12:47:41.756Z,21.95
2018-07-31T12:50:09.479Z,22.00
2018-07-31T12:52:37.101Z,22.52
2018-07-31T12:55:04.775Z,23.12
2018-07-31T12:57:32.512Z,23.24
2018-07-31T13:00:00.339Z,23.10
2018-07-31T13:02:28.025Z,22.99
2018-07-31T13:04:55.657Z,23.49
2018-07-31T13:07:23.281Z,23.29
2018-07-31T13:09:51.188Z,23.15
2018-07-31T13:12:18.867Z,22.26
2018-07-31T13:14:46.538Z,20.88
2018-07-31T13:17:14.193Z,20.27
2018-07-31T13:19:41.843Z,18.31
2018-07-31T13:22:09.521Z,17.71
2018-07-31T13:24:37.916Z,16.11
2018-07-31T13:27:05.635Z,14.99
2018-07-31T13:29:33.246Z,14.53
2018-07-31T13:32:00.898Z,13.57
2018-07-31T13:34:28.538Z,13.81
2018-07-31T13:36:56.718Z,13.53
2018-07-31T13:39:24.336Z,13.13
2018-07-31T13:41:51.974Z,12.81
2018-07-31T13:44:19.562Z,12.66
2018-07-31T13:46:47.273Z,12.57
2018-07-31T13:49:14.892Z,11.83
2018-07-31T13:51:42.542Z,11.43
2018-07-31T13:54:10.204Z,11.25
2018-07-31T13:56:37.835Z,11.19
2018-07-31T13:59:05.484Z,10.86
2018-07-31T14:01:33.169Z,10.85
2018-07-31T14:04:00.822Z,10.45
2018-07-31T14:06:28.456Z,10.81
2018-07-31T14:08:56.137Z,10.68
2018-07-31T14:11:23.826Z,10.07
2018-07-31T14:13:51.553Z,10.48
2018-07-31T14:16:19.202Z,10.70
2018-07-31T14:18:46.839Z,10.58
2018-07-31T14:21:14.493Z,11.11
2018-07-31T14:23:42.119Z,11.67
2018-07-31T14:26:09.861Z,13.03
2018-07-31T14:28:37.581Z,14.29
2018-07-31T14:31:05.271Z,15.51
2018-07-31T14:33:32.964Z,15.36
2018-07-31T14:36:00.599Z,16.16
2018-07-31T14:38:28.307Z,16.51
2018-07-31T14:40:55.909Z,17.13
2018-07-31T14:43:23.594Z,17.78
2018-07-31T14:45:51.398Z,17.69
2018-07-31T14:48:19.176Z,18.34
2018-07-31T14:50:46.769Z,18.67
2018-07-31T14:53:14.757Z,18.70
2018-07-31T14:55:42.368Z,19.36
2018-07-31T14:58:09.967Z,19.83
2018-07-31T15:00:37.582Z,19.51
2018-07-31T15:03:05.203Z,20.03
2018-07-31T15:05:32.799Z,20.04
2018-07-31T15:08:00.410Z,20.05
2018-07-31T15:10:28.039Z,17.76
2018-07-31T15:12:55.635Z,16.51
2018-07-31T15:15:23.240Z,15.91
2018-07-31T15:17:50.953Z,15.29
2018-07-31T15:20:18.584Z,15.26
2018-07-31T15:22:46.227Z,14.94
2018-07-31T15:25:13.796Z,15.55
2018-07-31T15:27:41.372Z,15.59
2018-07-31T15:30:08.999Z,15.52
2018-07-31T15:32:36.614Z,16.57
2018-07-31T15:35:04.408Z,16.71
2018-07-31T15:37:32.102Z,17.26
2018-07-31T15:39:59.735Z,16.97
2018-07-31T15:42:27.428Z,17.85
2018-07-31T15:44:55.067Z,18.33
2018-07-31T15:47:22.701Z,19.10
2018-07-31T15:49:50.352Z,19.12
2018-07-31T15:52:17.950Z,19.22
2018-07-31T15:54:45.543Z,19.08
2018-07-31T15:57:13.210Z,19.38
2018-07-31T15:59:40.907Z,19.08
2018-07-31T16:02:08.459Z,19.62
2018-07-31T16:04:36.039Z,20.02
2018-07-31T16:07:03.849Z,19.80
2018-07-31T16:09:31.671Z,20.41
2018-07-31T16:11:59.301Z,20.47
2018-07-31T16:14:26.984Z,20.48
2018-07-31T16:16:54.557Z,20.59
2018-07-31T16:19:22.239Z,20.69
2018-07-31T16:21:50.772Z,20.68
2018-07-31T16:24:18.379Z,21.75
2018-07-31T16:26:45.999Z,21.40
2018-07-31T16:29:13.701Z,20.88
2018-07-31T16:31:41.400Z,21.03
2018-07-31T16:34:09.199Z,21.64
2018-07-31T16:36:36.815Z,22.15
2018-07-31T16:39:07.205Z,21.83
2018-07-31T16:41:34.775Z,21.41
2018-07-31T16:44:02.540Z,21.67
2018-07-31T16:46:30.278Z,21.98
2018-07-31T16:48:57.876Z,21.55
2018-07-31T16:51:25.566Z,21.53
2018-07-31T16:53:53.132Z,21.85
2018-07-31T16:56:20.823Z,21.74
2018-07-31T16:58:48.455Z,22.77
2018-07-31T17:01:16.091Z,21.54
2018-07-31T17:03:43.711Z,22.23
2018-07-31T17:06:11.582Z,21.92
2018-07-31T17:08:39.232Z,22.30
2018-07-31T17:11:06.944Z,22.27
2018-07-31T17:13:34.685Z,21.99
2018-07-31T17:16:02.244Z,22.66
2018-07-31T17:18:30.280Z,22.78
2018-07-31T17:20:58.000Z,22.16
2018-07-31T17:23:25.973Z,22.23
2018-07-31T17:25:53.664Z,22.31
2018-07-31T17:28:21.504Z,22.52
2018-07-31T17:30:49.779Z,22.50
2018-07-31T17:33:17.392Z,23.14
2018-07-31T17:35:44.971Z,23.32
2018-07-31T17:38:12.617Z,22.85
2018-07-31T17:40:40.227Z,22.94
2018-07-31T17:43:07.858Z,23.30
2018-07-31T17:45:35.450Z,23.57
2018-07-31T17:48:03.049Z,23.83
2018-07-31T17:50:30.756Z,23.40
2018-07-31T17:52:58.435Z,23.70
2018-07-31T17:55:26.032Z,23.84
2018-07-31T17:57:53.646Z,23.56
2018-07-31T18:00:21.220Z,24.27
2018-07-31T18:02:48.861Z,23.95
2018-07-31T18:05:16.544Z,23.96
2018-07-31T18:07:44.157Z,23.74
2018-07-31T18:10:11.787Z,24.72
2018-07-31T18:12:39.498Z,24.48
2018-07-31T18:15:07.340Z,24.41
2018-07-31T18:17:34.967Z,24.60
2018-07-31T18:20:02.667Z,25.16
2018-07-31T18:22:30.319Z,25.25
2018-07-31T18:24:57.927Z,26.12
2018-07-31T18:27:25.636Z,26.43
2018-07-31T18:29:53.572Z,26.78
2018-07-31T18:32:21.174Z,27.24
2018-07-31T18:34:48.881Z,27.12
2018-07-31T18:37:16.480Z,27.40
2018-07-31T18:39:44.078Z,28.20
2018-07-31T18:42:11.751Z,28.19
2018-07-31T18:44:39.365Z,29.01
2018-07-31T18:47:07.253Z,28.69
2018-07-31T18:49:34.912Z,29.02
2018-07-31T18:52:02.532Z,29.24
2018-07-31T18:54:30.183Z,29.53
2018-07-31T18:56:57.888Z,29.54
2018-07-31T18:59:25.964Z,28.92
2018-07-31T19:01:53.685Z,29.28
2018-07-31T19:04:21.375Z,29.97
2018-07-31T19:06:49.155Z,29.47
2018-07-31T19:09:16.779Z,29.82
2018-07-31T19:11:44.418Z,29.71
2018-07-31T19:14:12.050Z,30.03
2018-07-31T19:16:40.869Z,30.56
2018-07-31T19:19:08.541Z,30.70
2018-07-31T19:21:37.011Z,31.00
2018-07-31T19:24:04.681Z,31.12
2018-07-31T19:26:32.375Z,31.07
2018-07-31T19:29:00.139Z,30.77
2018-07-31T19:31:27.893Z,31.09
2018-07-31T19:33:55.729Z,31.66
2018-07-31T19:36:23.587Z,31.22
2018-07-31T19:38:51.363Z,31.92
2018-07-31T19:41:19.049Z,32.09
2018-07-31T19:43:46.716Z,31.96
2018-07-31T19:46:14.419Z,32.02
2018-07-31T19:48:42.102Z,31.66
2018-07-31T19:51:09.972Z,32.07
2018-07-31T19:53:37.618Z,32.23
2018-07-31T19:56:05.971Z,32.01
2018-07-31T19:58:33.753Z,32.47
2018-07-31T20:01:01.559Z,33.36
2018-07-31T20:03:30.465Z,33.51
2018-07-31T20:05:58.165Z,33.05
2018-07-31T20:08:26.269Z,33.11
2018-07-31T20:10:54.089Z,33.17
2018-07-31T20:13:21.923Z,34.05
2018-07-31T20:15:49.668Z,34.29
2018-07-31T20:18:17.600Z,34.42
2018-07-31T20:20:45.251Z,34.70
2018-07-31T20:23:12.897Z,34.96
2018-07-31T20:25:40.617Z,35.23
2018-07-31T20:28:08.384Z,34.70
2018-07-31T20:30:36.185Z,34.79
2018-07-31T20:33:03.917Z,34.04
2018-07-31T20:35:31.771Z,34.36
2018-07-31T20:37:59.649Z,34.36
2018-07-31T20:40:27.324Z,34.94
2018-07-31T20:42:55.111Z,35.38
2018-07-31T20:45:23.175Z,34.92
2018-07-31T20:47:52.254Z,35.16
2018-07-31T20:50:19.989Z,34.82
2018-07-31T20:52:47.614Z,34.92
2018-07-31T20:55:15.287Z,35.03
2018-07-31T20:57:44.178Z,34.52
2018-07-31T21:00:11.967Z,34.67
2018-07-31T21:02:39.692Z,35.76
2018-07-31T21:05:07.498Z,36.31
2018-07-31T21:07:35.157Z,36.26
2018-07-31T21:10:03.123Z,36.14
2018-07-31T21:12:30.764Z,35.38
2018-07-31T21:14:58.434Z,35.86
2018-07-31T21:17:26.244Z,36.55
2018-07-31T21:19:53.901Z,35.97
2018-07-31T21:22:21.851Z,36.29
2018-07-31T21:24:49.689Z,36.37
2018-07-31T21:27:17.299Z,37.10
2018-07-31T21:29:45.083Z,36.73
2018-07-31T21:32:13.860Z,36.69
2018-07-31T21:34:41.579Z,36.46
2018-07-31T21:37:09.388Z,36.22
2018-07-31T21:39:37.034Z,36.69
2018-07-31T21:42:04.652Z,37.41
2018-07-31T21:44:32.528Z,37.53
2018-07-31T21:47:00.212Z,36.87
2018-07-31T21:49:27.983Z,37.40
2018-07-31T21:51:55.796Z,37.55
2018-07-31T21:54:23.462Z,37.53
2018-07-31T21:56:51.487Z,37.51
2018-07-31T21:59:19.172Z,37.07
2018-07-31T22:01:46.844Z,37.67
2018-07-31T22:04:14.620Z,37.45
2018-07-31T22:06:42.263Z,37.09
2018-07-31T22:09:10.132Z,37.34
2018-07-31T22:11:37.763Z,37.09
2018-07-31T22:14:05.415Z,36.70
2018-07-31T22:16:33.073Z,36.79
2018-07-31T22:19:00.691Z,36.38
2018-07-31T22:21:28.501Z,35.89
2018-07-31T22:23:56.216Z,35.78
2018-07-31T22:26:23.993Z,35.65
2018-07-31T22:28:51.936Z,35.51
2018-07-31T22:31:19.659Z,35.42
2018-07-31T22:33:47.446Z,35.24
2018-07-31T22:36:15.081Z,35.16
2018-07-31T22:38:42.799Z,35.28
2018-07-31T22:41:10.955Z,35.35
2018-07-31T22:43:38.602Z,35.14
2018-07-31T22:46:06.341Z,35.06
2018-07-31T22:48:34.163Z,35.30
2018-07-31T22:51:01.780Z,35.85
2018-07-31T22:53:30.034Z,36.21
2018-07-31T22:55:57.867Z,35.77
2018-07-31T22:58:25.556Z,36.08
2018-07-31T23:00:53.438Z,36.25
2018-07-31T23:03:21.131Z,36.45
2018-07-31T23:05:49.304Z,37.44
2018-07-31T23:08:19.003Z,37.47
2018-07-31T23:10:46.635Z,37.66
2018-07-31T23:13:14.268Z,37.13
2018-07-31T23:15:41.985Z,37.71
2018-07-31T23:18:09.731Z,35.48
2018-07-31T23:20:37.432Z,35.08
2018-07-31T23:23:05.377Z,35.13
2018-07-31T23:25:32.992Z,34.62
2018-07-31T23:28:00.689Z,34.29
2018-07-31T23:30:28.380Z,34.90
2018-07-31T23:32:56.032Z,34.68
2018-07-31T23:35:23.676Z,34.52
2018-07-31T23:37:51.583Z,34.26
2018-07-31T23:40:19.206Z,34.21
2018-07-31T23:42:47.599Z,34.16
2018-07-31T23:45:15.281Z,34.45
2018-07-31T23:47:43.219Z,34.11
2018-07-31T23:50:10.912Z,34.51
2018-07-31T23:52:38.716Z,34.58
2018-07-31T23:55:06.399Z,34.33
2018-07-31T23:57:34.023Z,34.94
